Tripoli, Lebanon
Current Conditions -  °F | °C
As of 10:00 AM on Friday 24 Oct 2014 (Local Time) from OLBA Reporting Station
Clear Clear  
Wind Chill: 79°   Ceiling: Unl
Heat Index: 79°   Visibility: 6mi
Dew Point: 50°   Wind: 3mph
Humidity: 36%   Direction: 50°NE
Pressure: 30.06"   Gusts: NA
Location:  34.45°N, 35.84°E
Report Text: OLBA 240700Z 05003KT 350V120 CAVOK 26/10 Q1018
Loading
Personal Weather Stations






























Interactive Weather Map
Tropical Storm Tracking
New forecast layout! Learn more

10-Day Weather Forecast

Advertisements
Track Severe Weather on mobile